createdAt,value
2023-01-12T00:02:26.624Z,4.02
2023-01-12T00:04:53.307Z,4.01
2023-01-12T00:07:19.911Z,4.10
2023-01-12T00:09:46.496Z,3.81
2023-01-12T00:12:13.136Z,4.21
2023-01-12T00:14:39.962Z,4.21
2023-01-12T00:17:06.588Z,4.18
2023-01-12T00:19:33.272Z,3.90
2023-01-12T00:22:01.781Z,3.97
2023-01-12T00:24:28.338Z,4.48
2023-01-12T00:26:56.625Z,4.11
2023-01-12T00:29:24.719Z,3.99
2023-01-12T00:31:52.996Z,3.96
2023-01-12T00:34:20.280Z,4.09
2023-01-12T00:36:47.483Z,3.92
2023-01-12T00:39:15.136Z,4.17
2023-01-12T00:41:42.493Z,4.18
2023-01-12T00:44:09.135Z,3.99
2023-01-12T00:46:35.760Z,4.30
2023-01-12T00:49:02.441Z,4.11
2023-01-12T00:51:29.052Z,4.07
2023-01-12T00:53:55.661Z,4.04
2023-01-12T00:56:22.260Z,4.36
2023-01-12T00:58:48.855Z,4.15
2023-01-12T01:01:15.506Z,4.14
2023-01-12T01:03:42.197Z,4.20
2023-01-12T01:06:08.885Z,4.28
2023-01-12T01:08:37.301Z,3.96
2023-01-12T01:11:10.767Z,3.28
2023-01-12T01:13:39.306Z,3.09
2023-01-12T01:16:07.462Z,3.27
2023-01-12T01:18:35.533Z,3.02
2023-01-12T01:21:02.263Z,2.99
2023-01-12T01:23:32.616Z,2.93
2023-01-12T01:26:04.852Z,3.10
2023-01-12T01:28:31.568Z,3.08
2023-01-12T01:31:17.034Z,3.11
2023-01-12T01:33:44.224Z,3.03
2023-01-12T01:36:12.467Z,2.88
2023-01-12T01:38:40.074Z,2.80
2023-01-12T01:41:07.733Z,3.20
2023-01-12T01:43:55.096Z,3.03
2023-01-12T01:46:29.743Z,3.23
2023-01-12T01:49:08.822Z,3.80
2023-01-12T01:51:36.178Z,4.12
2023-01-12T01:54:04.589Z,4.23
2023-01-12T01:56:33.250Z,4.34
2023-01-12T01:59:14.336Z,4.49
2023-01-12T02:01:41.196Z,4.34
2023-01-12T02:04:08.734Z,4.41
2023-01-12T02:06:35.880Z,4.48
2023-01-12T02:09:19.375Z,4.46
2023-01-12T02:11:46.884Z,4.57
2023-01-12T02:14:13.495Z,4.25
2023-01-12T02:16:57.800Z,4.15
2023-01-12T02:19:24.352Z,3.98
2023-01-12T02:22:19.608Z,3.95
2023-01-12T02:25:17.789Z,4.47
2023-01-12T02:28:29.053Z,4.13
2023-01-12T02:31:29.542Z,4.11
2023-01-12T02:34:17.086Z,3.77
2023-01-12T02:36:43.687Z,3.75
2023-01-12T02:39:29.630Z,3.97
2023-01-12T02:42:21.646Z,3.64
2023-01-12T02:45:16.464Z,3.81
2023-01-12T02:47:52.845Z,3.69
2023-01-12T02:50:43.676Z,3.89
2023-01-12T02:53:24.000Z,3.74
2023-01-12T02:55:53.140Z,3.47
2023-01-12T02:58:25.405Z,3.55
2023-01-12T03:00:59.162Z,3.18
2023-01-12T03:03:26.842Z,3.32
2023-01-12T03:05:59.568Z,3.63
2023-01-12T03:08:30.368Z,3.45
2023-01-12T03:11:11.663Z,4.06
2023-01-12T03:13:45.967Z,3.66
2023-01-12T03:16:19.546Z,3.52
2023-01-12T03:18:50.053Z,3.61
2023-01-12T03:21:23.908Z,3.40
2023-01-12T03:24:03.446Z,3.63
2023-01-12T03:26:34.559Z,3.57
2023-01-12T03:29:12.489Z,3.13
2023-01-12T03:31:39.321Z,3.56
2023-01-12T03:34:05.988Z,3.78
2023-01-12T03:37:11.541Z,3.70
2023-01-12T03:40:10.763Z,3.67
2023-01-12T03:42:51.326Z,3.76
2023-01-12T03:45:27.220Z,3.55
2023-01-12T03:48:02.461Z,3.77
2023-01-12T03:50:39.668Z,3.70
2023-01-12T03:53:09.285Z,3.55
2023-01-12T03:55:38.773Z,3.35
2023-01-12T03:58:06.579Z,3.61
2023-01-12T04:00:33.335Z,3.45
2023-01-12T04:03:07.954Z,3.53
2023-01-12T04:05:34.673Z,3.44
2023-01-12T04:08:01.315Z,3.22
2023-01-12T04:10:27.925Z,3.46
2023-01-12T04:12:54.651Z,3.28
2023-01-12T04:15:21.320Z,3.31
2023-01-12T04:17:47.954Z,3.22
2023-01-12T04:20:14.651Z,3.26
2023-01-12T04:22:41.321Z,2.94
2023-01-12T04:25:09.734Z,3.02
2023-01-12T04:27:40.629Z,3.01
2023-01-12T04:30:07.971Z,2.89
2023-01-12T04:32:34.567Z,2.93
2023-01-12T04:35:01.170Z,3.01
2023-01-12T04:37:27.765Z,3.03
2023-01-12T04:39:54.558Z,2.95
2023-01-12T04:42:21.220Z,3.05
2023-01-12T04:44:48.913Z,2.83
2023-01-12T04:47:15.523Z,3.30
2023-01-12T04:49:42.134Z,3.24
2023-01-12T04:52:08.742Z,3.23
2023-01-12T04:54:35.391Z,3.30
2023-01-12T04:57:02.008Z,3.42
2023-01-12T04:59:29.530Z,3.25
2023-01-12T05:01:56.228Z,3.33
2023-01-12T05:04:22.898Z,3.46
2023-01-12T05:06:49.640Z,3.51
2023-01-12T05:09:17.426Z,3.28
2023-01-12T05:11:45.155Z,2.92
2023-01-12T05:14:11.844Z,2.97
2023-01-12T05:16:38.496Z,2.90
2023-01-12T05:19:05.134Z,3.41
2023-01-12T05:21:33.373Z,3.40
2023-01-12T05:24:00.144Z,3.27
2023-01-12T05:26:26.886Z,3.38
2023-01-12T05:28:53.467Z,3.58
2023-01-12T05:31:20.278Z,3.73
2023-01-12T05:33:47.139Z,3.63
2023-01-12T05:36:16.168Z,3.77
2023-01-12T05:38:42.856Z,3.65
2023-01-12T05:41:11.316Z,3.56
2023-01-12T05:43:38.066Z,3.10
2023-01-12T05:46:06.152Z,3.30
2023-01-12T05:48:32.899Z,3.42
2023-01-12T05:51:03.384Z,3.55
2023-01-12T05:53:30.386Z,3.50
2023-01-12T05:55:58.415Z,3.33
2023-01-12T05:58:25.420Z,3.16
2023-01-12T06:00:52.184Z,3.31
2023-01-12T06:03:18.915Z,3.35
2023-01-12T06:05:52.701Z,3.44
2023-01-12T06:08:22.025Z,3.58
2023-01-12T06:10:48.777Z,3.62
2023-01-12T06:13:15.567Z,3.53
2023-01-12T06:15:43.347Z,3.71
2023-01-12T06:18:09.997Z,3.42
2023-01-12T06:20:36.787Z,3.60
2023-01-12T06:23:06.099Z,3.49
2023-01-12T06:25:32.948Z,3.56
2023-01-12T06:27:59.837Z,3.27
2023-01-12T06:30:26.666Z,3.58
2023-01-12T06:32:53.580Z,3.81
2023-01-12T06:35:20.277Z,3.80
2023-01-12T06:37:47.222Z,3.87
2023-01-12T06:40:13.874Z,3.65
2023-01-12T06:42:41.195Z,3.89
2023-01-12T06:45:08.366Z,3.65
2023-01-12T06:47:44.987Z,3.81
2023-01-12T06:50:12.134Z,3.72
2023-01-12T06:52:38.759Z,3.53
2023-01-12T06:55:05.607Z,3.52
2023-01-12T06:57:32.264Z,3.44
2023-01-12T06:59:58.859Z,3.78
2023-01-12T07:02:25.458Z,3.65
2023-01-12T07:04:52.059Z,4.05
2023-01-12T07:07:18.648Z,3.86
2023-01-12T07:09:45.323Z,3.51
2023-01-12T07:12:11.928Z,3.81
2023-01-12T07:14:38.690Z,3.45
2023-01-12T07:17:05.354Z,3.95
2023-01-12T07:19:31.947Z,3.91
2023-01-12T07:21:58.662Z,4.28
2023-01-12T07:24:25.240Z,4.08
2023-01-12T07:26:51.895Z,4.33
2023-01-12T07:29:18.507Z,4.26
2023-01-12T07:31:45.200Z,3.84
2023-01-12T07:34:12.381Z,4.12
2023-01-12T07:36:39.440Z,3.90
2023-01-12T07:39:06.053Z,3.74
2023-01-12T07:41:32.643Z,3.64
2023-01-12T07:43:59.444Z,3.70
2023-01-12T07:46:26.118Z,3.59
2023-01-12T07:48:52.840Z,3.60
2023-01-12T07:51:19.496Z,3.50
2023-01-12T07:53:47.483Z,3.51
2023-01-12T07:56:14.178Z,3.49
2023-01-12T07:58:40.801Z,3.66
2023-01-12T08:01:07.444Z,3.70
2023-01-12T08:03:34.093Z,3.54
2023-01-12T08:06:01.099Z,3.59
2023-01-12T08:08:27.811Z,3.27
2023-01-12T08:10:54.385Z,3.34
2023-01-12T08:13:21.078Z,3.39
2023-01-12T08:15:51.105Z,3.47
2023-01-12T08:18:29.458Z,3.50
2023-01-12T08:21:02.598Z,3.50
2023-01-12T08:23:37.286Z,3.59
2023-01-12T08:26:12.970Z,3.32
2023-01-12T08:29:01.500Z,3.65
2023-01-12T08:31:28.569Z,3.41
2023-01-12T08:33:55.965Z,3.29
2023-01-12T08:36:25.278Z,3.29
2023-01-12T08:38:52.497Z,3.52
2023-01-12T08:41:19.108Z,3.40
2023-01-12T08:43:45.683Z,3.30
2023-01-12T08:46:12.513Z,3.29
2023-01-12T08:48:40.065Z,3.07
2023-01-12T08:51:08.179Z,3.43
2023-01-12T08:53:35.804Z,3.14
2023-01-12T08:56:02.600Z,3.36
2023-01-12T08:58:29.279Z,3.55
2023-01-12T09:00:56.134Z,3.40
2023-01-12T09:03:22.920Z,3.19
2023-01-12T09:05:49.508Z,2.93
2023-01-12T09:08:16.109Z,3.38
2023-01-12T09:10:42.697Z,3.29
2023-01-12T09:13:09.332Z,3.02
2023-01-12T09:15:36.059Z,3.08
2023-01-12T09:18:02.844Z,3.33
2023-01-12T09:20:29.575Z,3.26
2023-01-12T09:22:56.171Z,3.15
2023-01-12T09:25:22.837Z,2.95
2023-01-12T09:27:49.491Z,3.31
2023-01-12T09:30:16.267Z,3.30
2023-01-12T09:32:42.929Z,3.09
2023-01-12T09:35:09.782Z,3.01
2023-01-12T09:37:36.410Z,3.14
2023-01-12T09:40:03.053Z,2.65
2023-01-12T09:42:30.001Z,2.80
2023-01-12T09:44:56.615Z,2.92
2023-01-12T09:47:51.090Z,2.63
2023-01-12T09:50:29.405Z,3.05
2023-01-12T09:53:02.180Z,2.75
2023-01-12T09:55:42.080Z,2.95
2023-01-12T09:58:08.639Z,2.94
2023-01-12T10:00:35.277Z,3.06
2023-01-12T10:03:20.663Z,3.11
2023-01-12T10:05:53.832Z,2.69
2023-01-12T10:08:41.830Z,2.86
2023-01-12T10:11:30.199Z,3.09
2023-01-12T10:14:44.128Z,3.02
2023-01-12T10:17:41.927Z,3.24
2023-01-12T10:20:17.552Z,3.33
2023-01-12T10:22:50.229Z,3.71
2023-01-12T10:25:40.232Z,2.97
2023-01-12T10:28:26.449Z,2.88
2023-01-12T10:30:56.390Z,2.63
2023-01-12T10:33:29.435Z,2.86
2023-01-12T10:36:04.382Z,2.94
2023-01-12T10:38:34.231Z,2.49
2023-01-12T10:41:14.218Z,3.28
2023-01-12T10:43:43.422Z,3.78
2023-01-12T10:46:15.013Z,3.52
2023-01-12T10:49:14.575Z,3.31
2023-01-12T10:52:07.053Z,2.99
2023-01-12T10:54:38.295Z,2.92
2023-01-12T10:57:16.258Z,3.18
2023-01-12T10:59:52.893Z,2.78
2023-01-12T11:02:19.839Z,2.77
2023-01-12T11:04:54.293Z,2.67
2023-01-12T11:07:24.097Z,2.68
2023-01-12T11:09:50.696Z,2.71
2023-01-12T11:12:35.123Z,2.62
2023-01-12T11:15:03.410Z,2.73
2023-01-12T11:17:38.802Z,2.72
2023-01-12T11:20:49.444Z,2.67
2023-01-12T11:23:24.302Z,2.79
2023-01-12T11:25:52.761Z,2.89
2023-01-12T11:28:30.872Z,2.66
2023-01-12T11:31:28.493Z,2.51
2023-01-12T11:34:16.395Z,2.57
2023-01-12T11:37:06.468Z,2.88
2023-01-12T11:39:35.416Z,2.78
2023-01-12T11:42:04.595Z,2.56
2023-01-12T11:44:56.647Z,2.49
2023-01-12T11:47:36.325Z,2.81
2023-01-12T11:50:35.280Z,2.44
2023-01-12T11:53:01.937Z,2.93
2023-01-12T11:55:46.618Z,3.07
2023-01-12T11:58:22.472Z,2.54
2023-01-12T12:01:03.862Z,2.58
2023-01-12T12:04:14.151Z,2.67
2023-01-12T12:07:05.240Z,2.67
2023-01-12T12:09:57.961Z,2.63
2023-01-12T12:13:11.840Z,2.46
2023-01-12T12:16:06.236Z,2.27
2023-01-12T12:18:32.808Z,2.40
2023-01-12T12:21:08.082Z,3.14
2023-01-12T12:23:51.489Z,2.53
2023-01-12T12:26:29.397Z,2.69
2023-01-12T12:29:23.415Z,3.20
2023-01-12T12:32:08.948Z,4.35
2023-01-12T12:34:56.473Z,3.41
2023-01-12T12:37:29.070Z,2.71
2023-01-12T12:40:18.630Z,2.71
2023-01-12T12:43:03.536Z,2.59
2023-01-12T12:45:44.287Z,2.83
2023-01-12T12:48:20.008Z,2.98
2023-01-12T12:51:00.565Z,2.78
2023-01-12T12:53:36.280Z,3.17
2023-01-12T12:56:10.490Z,3.02
2023-01-12T12:58:48.409Z,3.10
2023-01-12T13:01:21.362Z,3.08
2023-01-12T13:03:50.392Z,3.11
2023-01-12T13:06:31.315Z,2.96
2023-01-12T13:09:11.555Z,2.74
2023-01-12T13:11:48.681Z,3.01
2023-01-12T13:14:34.072Z,3.03
2023-01-12T13:17:05.948Z,3.11
2023-01-12T13:19:43.032Z,2.93
2023-01-12T13:22:28.838Z,2.92
2023-01-12T13:25:01.536Z,3.08
2023-01-12T13:27:48.013Z,2.84
2023-01-12T13:30:26.662Z,3.06
2023-01-12T13:32:53.399Z,2.94
2023-01-12T13:35:45.834Z,3.11
2023-01-12T13:38:22.772Z,3.25
2023-01-12T13:40:56.082Z,3.24
2023-01-12T13:43:37.711Z,3.43
2023-01-12T13:46:17.726Z,3.26
2023-01-12T13:48:49.387Z,3.28
2023-01-12T13:51:36.127Z,3.27
2023-01-12T13:54:06.932Z,3.30
2023-01-12T13:56:33.596Z,6.32
2023-01-12T13:59:03.234Z,6.05
2023-01-12T14:01:34.384Z,4.87
2023-01-12T14:04:35.449Z,3.42
2023-01-12T14:07:02.250Z,3.68
2023-01-12T14:09:34.821Z,3.13
2023-01-12T14:12:31.351Z,3.17
2023-01-12T14:14:58.027Z,3.41
2023-01-12T14:17:29.158Z,3.50
2023-01-12T14:19:55.780Z,2.88
2023-01-12T14:22:22.440Z,2.31
2023-01-12T14:24:49.270Z,2.20
2023-01-12T14:27:27.485Z,2.19
2023-01-12T14:29:54.998Z,2.15
2023-01-12T14:32:24.691Z,2.15
2023-01-12T14:34:52.383Z,5.81
2023-01-12T14:37:29.500Z,2.38
2023-01-12T14:39:56.912Z,2.56
2023-01-12T14:42:24.017Z,2.41
2023-01-12T14:44:57.551Z,2.21
2023-01-12T14:47:29.164Z,2.26
2023-01-12T14:49:56.061Z,2.46
2023-01-12T14:52:22.660Z,2.25
2023-01-12T14:54:49.702Z,2.28
2023-01-12T14:57:34.936Z,2.30
2023-01-12T15:00:03.746Z,2.33
2023-01-12T15:02:41.213Z,2.29
2023-01-12T15:05:10.735Z,2.35
2023-01-12T15:07:39.220Z,2.39
2023-01-12T15:10:09.026Z,2.44
2023-01-12T15:12:38.452Z,2.20
2023-01-12T15:15:29.421Z,2.31
2023-01-12T15:17:56.080Z,2.39
2023-01-12T15:20:22.995Z,2.44
2023-01-12T15:22:52.708Z,2.68
2023-01-12T15:25:19.340Z,2.13
2023-01-12T15:27:48.426Z,2.19
2023-01-12T15:30:15.298Z,2.53
2023-01-12T15:32:47.978Z,2.56
2023-01-12T15:35:19.346Z,2.79
2023-01-12T15:37:46.001Z,3.07
2023-01-12T15:40:14.171Z,2.80
2023-01-12T15:42:41.498Z,3.24
2023-01-12T15:45:32.276Z,3.31
2023-01-12T15:47:59.041Z,3.39
2023-01-12T15:50:25.847Z,3.32
2023-01-12T15:52:52.847Z,3.29
2023-01-12T15:55:21.968Z,3.16
2023-01-12T15:57:49.032Z,3.20
2023-01-12T16:00:18.749Z,2.91
2023-01-12T16:02:46.300Z,3.28
2023-01-12T16:05:13.446Z,3.33
2023-01-12T16:07:40.223Z,3.05
2023-01-12T16:10:08.041Z,3.08
2023-01-12T16:12:35.006Z,2.81
2023-01-12T16:15:01.715Z,2.69
2023-01-12T16:17:28.320Z,2.18
2023-01-12T16:19:54.936Z,2.30
2023-01-12T16:22:26.170Z,2.51
2023-01-12T16:24:55.798Z,2.41
2023-01-12T16:27:26.239Z,2.56
2023-01-12T16:29:53.867Z,2.69
2023-01-12T16:32:27.146Z,2.81
2023-01-12T16:34:54.049Z,2.95
2023-01-12T16:37:20.695Z,2.80
2023-01-12T16:39:47.292Z,2.85
2023-01-12T16:42:15.291Z,3.01
2023-01-12T16:44:41.980Z,3.15
2023-01-12T16:47:13.190Z,3.11
2023-01-12T16:49:40.506Z,3.05
2023-01-12T16:52:08.680Z,3.32
2023-01-12T16:54:35.407Z,3.31
2023-01-12T16:57:02.627Z,3.46
2023-01-12T16:59:29.345Z,3.38
2023-01-12T17:01:56.188Z,3.08
2023-01-12T17:04:22.889Z,3.12
2023-01-12T17:06:49.681Z,3.20
2023-01-12T17:09:16.472Z,3.08
2023-01-12T17:11:43.406Z,3.31
2023-01-12T17:14:12.289Z,3.07
2023-01-12T17:16:39.172Z,2.88
2023-01-12T17:19:06.657Z,3.04
2023-01-12T17:21:33.474Z,3.01
2023-01-12T17:24:00.137Z,3.57
2023-01-12T17:26:26.933Z,3.30
2023-01-12T17:28:55.293Z,3.32
2023-01-12T17:31:22.388Z,4.69
2023-01-12T17:33:49.095Z,3.45
2023-01-12T17:36:15.771Z,3.15
2023-01-12T17:38:42.766Z,3.18
2023-01-12T17:41:12.085Z,3.04
2023-01-12T17:43:38.748Z,3.87
2023-01-12T17:46:05.518Z,3.81
2023-01-12T17:48:32.221Z,3.54
2023-01-12T17:50:58.920Z,3.50
2023-01-12T17:53:25.583Z,3.50
2023-01-12T17:55:53.138Z,3.11
2023-01-12T17:58:20.071Z,2.85
2023-01-12T18:00:46.779Z,6.28
2023-01-12T18:03:13.422Z,4.32
2023-01-12T18:05:42.458Z,3.46
2023-01-12T18:08:09.186Z,4.25
2023-01-12T18:10:35.790Z,4.10
2023-01-12T18:13:02.432Z,5.12
2023-01-12T18:15:29.288Z,3.73
2023-01-12T18:17:55.972Z,3.31
2023-01-12T18:20:23.533Z,3.51
2023-01-12T18:22:50.757Z,4.41
2023-01-12T18:25:17.451Z,4.20
2023-01-12T18:27:44.092Z,4.01
2023-01-12T18:30:11.268Z,3.52
2023-01-12T18:32:38.004Z,3.44
2023-01-12T18:35:05.052Z,3.65
2023-01-12T18:37:31.747Z,3.72
2023-01-12T18:39:58.557Z,3.72
2023-01-12T18:42:25.306Z,3.75
2023-01-12T18:44:51.946Z,4.42
2023-01-12T18:47:19.143Z,4.49
2023-01-12T18:49:46.923Z,4.07
2023-01-12T18:52:14.228Z,4.14
2023-01-12T18:54:41.375Z,4.09
2023-01-12T18:57:07.992Z,4.41
2023-01-12T18:59:34.590Z,4.43
2023-01-12T19:02:01.241Z,4.43
2023-01-12T19:04:27.879Z,4.68
2023-01-12T19:06:54.520Z,4.31
2023-01-12T19:09:21.174Z,4.21
2023-01-12T19:11:47.830Z,4.66
2023-01-12T19:14:14.489Z,4.89
2023-01-12T19:16:41.950Z,4.31
2023-01-12T19:19:08.833Z,4.31
2023-01-12T19:21:35.813Z,4.49
2023-01-12T19:24:02.481Z,5.01
2023-01-12T19:26:29.147Z,5.09
2023-01-12T19:28:55.755Z,4.96
2023-01-12T19:31:22.371Z,4.83
2023-01-12T19:33:49.065Z,5.09
2023-01-12T19:36:15.749Z,5.06
2023-01-12T19:38:45.032Z,5.05
2023-01-12T19:41:11.644Z,6.74
2023-01-12T19:43:39.510Z,8.06
2023-01-12T19:46:06.723Z,5.37
2023-01-12T19:48:33.380Z,4.77
2023-01-12T19:51:10.586Z,6.34
2023-01-12T19:53:39.519Z,6.32
2023-01-12T19:56:11.042Z,8.51
2023-01-12T19:58:38.328Z,8.37
2023-01-12T20:01:05.119Z,15.98
2023-01-12T20:03:31.844Z,11.26
2023-01-12T20:05:58.458Z,8.28
2023-01-12T20:08:25.754Z,8.27
2023-01-12T20:10:54.577Z,16.15
2023-01-12T20:13:21.304Z,10.23
2023-01-12T20:15:48.063Z,14.64
2023-01-12T20:18:14.744Z,14.77
2023-01-12T20:20:41.425Z,12.25
2023-01-12T20:23:08.053Z,8.63
2023-01-12T20:25:34.731Z,8.53
2023-01-12T20:28:01.405Z,11.57
2023-01-12T20:30:43.225Z,9.63
2023-01-12T20:33:10.632Z,7.39
2023-01-12T20:35:42.896Z,7.18
2023-01-12T20:38:09.599Z,6.55
2023-01-12T20:40:39.470Z,6.52
2023-01-12T20:43:06.079Z,6.31
2023-01-12T20:45:33.018Z,6.28
2023-01-12T20:47:59.609Z,6.69
2023-01-12T20:50:26.225Z,5.89
2023-01-12T20:52:53.128Z,7.62
2023-01-12T20:55:20.107Z,8.98
2023-01-12T20:57:47.272Z,8.17
2023-01-12T21:00:14.026Z,7.01
2023-01-12T21:02:40.630Z,7.65
2023-01-12T21:05:08.412Z,8.50
2023-01-12T21:07:35.102Z,7.70
2023-01-12T21:10:01.771Z,6.85
2023-01-12T21:12:28.429Z,6.51
2023-01-12T21:14:55.243Z,6.04
2023-01-12T21:17:21.910Z,6.08
2023-01-12T21:19:48.787Z,6.04
2023-01-12T21:22:15.628Z,6.08
2023-01-12T21:24:42.400Z,6.68
2023-01-12T21:27:09.048Z,6.60
2023-01-12T21:29:35.705Z,7.05
2023-01-12T21:32:02.363Z,7.17
2023-01-12T21:34:29.065Z,8.12
2023-01-12T21:36:55.776Z,7.80
2023-01-12T21:39:22.407Z,8.13
2023-01-12T21:41:48.985Z,6.83
2023-01-12T21:44:17.924Z,7.10
2023-01-12T21:46:44.560Z,7.73
2023-01-12T21:49:11.321Z,7.47
2023-01-12T21:51:37.979Z,7.27
2023-01-12T21:54:04.726Z,6.84
2023-01-12T21:56:31.357Z,6.45
2023-01-12T21:58:58.095Z,7.13
2023-01-12T22:01:24.851Z,7.25
2023-01-12T22:03:51.631Z,6.98
2023-01-12T22:06:18.311Z,6.77
2023-01-12T22:08:44.924Z,6.65
2023-01-12T22:11:15.314Z,6.85
2023-01-12T22:13:42.851Z,7.24
2023-01-12T22:16:12.378Z,7.18
2023-01-12T22:18:43.458Z,7.07
2023-01-12T22:21:10.116Z,6.84
2023-01-12T22:23:37.382Z,6.52
2023-01-12T22:26:06.804Z,6.47
2023-01-12T22:28:34.893Z,6.87
2023-01-12T22:31:12.810Z,6.83
2023-01-12T22:33:39.756Z,6.63
2023-01-12T22:36:07.449Z,6.54
2023-01-12T22:38:34.693Z,6.42
2023-01-12T22:41:06.527Z,5.99
2023-01-12T22:43:34.345Z,5.87
2023-01-12T22:46:01.040Z,6.11
2023-01-12T22:48:28.453Z,6.11
2023-01-12T22:50:55.177Z,7.30
2023-01-12T22:53:23.796Z,6.45
2023-01-12T22:55:51.461Z,5.95
2023-01-12T22:58:18.520Z,6.08
2023-01-12T23:00:45.125Z,6.84
2023-01-12T23:03:13.636Z,6.28
2023-01-12T23:05:50.513Z,5.56
2023-01-12T23:08:17.397Z,4.83
2023-01-12T23:10:44.573Z,5.75
2023-01-12T23:13:18.330Z,5.70
2023-01-12T23:15:51.311Z,5.54
2023-01-12T23:18:20.841Z,5.26
2023-01-12T23:20:48.707Z,4.95
2023-01-12T23:23:16.900Z,4.94
2023-01-12T23:25:44.840Z,5.38
2023-01-12T23:28:13.770Z,5.12
2023-01-12T23:30:41.202Z,4.97
2023-01-12T23:33:07.973Z,5.33
2023-01-12T23:35:40.666Z,4.66
2023-01-12T23:38:12.458Z,4.37
2023-01-12T23:40:39.076Z,4.64
2023-01-12T23:43:05.695Z,4.44
2023-01-12T23:45:33.319Z,4.12
2023-01-12T23:47:59.967Z,4.11
2023-01-12T23:50:26.622Z,4.64
2023-01-12T23:52:53.360Z,3.75
2023-01-12T23:55:19.981Z,3.87
2023-01-12T23:57:47.415Z,3.69
